sensor_id;sensor_type;location;lat;lon;timestamp;P1;durP1;ratioP1;P2;durP2;ratioP2
21418;SDS011;10870;51.384;10.316;2022-12-26T00:00:13;12.50;;;6.45;;
21418;SDS011;10870;51.384;10.316;2022-12-26T00:02:18;8.02;;;5.60;;
21418;SDS011;10870;51.384;10.316;2022-12-26T00:04:19;7.63;;;5.60;;
21418;SDS011;10870;51.384;10.316;2022-12-26T00:06:24;8.23;;;6.07;;
21418;SDS011;10870;51.384;10.316;2022-12-26T00:08:26;7.60;;;5.32;;
21418;SDS011;10870;51.384;10.316;2022-12-26T00:10:29;9.68;;;5.72;;
21418;SDS011;10870;51.384;10.316;2022-12-26T00:12:31;8.02;;;5.80;;
21418;SDS011;10870;51.384;10.316;2022-12-26T00:14:37;7.22;;;5.65;;
21418;SDS011;10870;51.384;10.316;2022-12-26T00:16:39;8.05;;;5.18;;
21418;SDS011;10870;51.384;10.316;2022-12-26T00:18:40;9.05;;;6.30;;
21418;SDS011;10870;51.384;10.316;2022-12-26T00:20:42;6.97;;;5.18;;
21418;SDS011;10870;51.384;10.316;2022-12-26T00:22:43;8.27;;;6.38;;
21418;SDS011;10870;51.384;10.316;2022-12-26T00:24:47;6.43;;;5.28;;
21418;SDS011;10870;51.384;10.316;2022-12-26T00:26:51;8.48;;;6.13;;
21418;SDS011;10870;51.384;10.316;2022-12-26T00:28:54;9.27;;;5.53;;
21418;SDS011;10870;51.384;10.316;2022-12-26T00:31:02;8.90;;;5.38;;
21418;SDS011;10870;51.384;10.316;2022-12-26T00:33:05;8.50;;;5.45;;
21418;SDS011;10870;51.384;10.316;2022-12-26T00:35:07;7.63;;;4.97;;
21418;SDS011;10870;51.384;10.316;2022-12-26T00:37:10;8.05;;;5.68;;
21418;SDS011;10870;51.384;10.316;2022-12-26T00:39:12;6.85;;;5.15;;
21418;SDS011;10870;51.384;10.316;2022-12-26T00:41:13;7.35;;;5.70;;
21418;SDS011;10870;51.384;10.316;2022-12-26T00:43:17;7.18;;;4.72;;
21418;SDS011;10870;51.384;10.316;2022-12-26T00:45:19;7.03;;;5.50;;
21418;SDS011;10870;51.384;10.316;2022-12-26T00:47:20;9.48;;;5.25;;
21418;SDS011;10870;51.384;10.316;2022-12-26T00:49:26;7.10;;;4.85;;
21418;SDS011;10870;51.384;10.316;2022-12-26T00:51:27;6.65;;;4.30;;
21418;SDS011;10870;51.384;10.316;2022-12-26T00:53:28;8.90;;;5.20;;
21418;SDS011;10870;51.384;10.316;2022-12-26T00:55:30;6.60;;;5.18;;
21418;SDS011;10870;51.384;10.316;2022-12-26T00:57:31;7.07;;;5.13;;
21418;SDS011;10870;51.384;10.316;2022-12-26T00:59:32;7.35;;;5.38;;
21418;SDS011;10870;51.384;10.316;2022-12-26T01:01:34;7.97;;;4.93;;
21418;SDS011;10870;51.384;10.316;2022-12-26T01:03:37;7.47;;;4.93;;
21418;SDS011;10870;51.384;10.316;2022-12-26T01:05:40;7.75;;;5.20;;
21418;SDS011;10870;51.384;10.316;2022-12-26T01:07:41;7.63;;;4.82;;
21418;SDS011;10870;51.384;10.316;2022-12-26T01:09:42;5.68;;;3.85;;
21418;SDS011;10870;51.384;10.316;2022-12-26T01:11:44;8.30;;;4.60;;
21418;SDS011;10870;51.384;10.316;2022-12-26T01:13:48;6.45;;;5.30;;
21418;SDS011;10870;51.384;10.316;2022-12-26T01:15:50;5.68;;;4.88;;
21418;SDS011;10870;51.384;10.316;2022-12-26T01:17:51;4.80;;;3.80;;
21418;SDS011;10870;51.384;10.316;2022-12-26T01:19:55;5.00;;;4.38;;
21418;SDS011;10870;51.384;10.316;2022-12-26T01:21:57;7.75;;;4.22;;
21418;SDS011;10870;51.384;10.316;2022-12-26T01:24:00;4.80;;;4.03;;
21418;SDS011;10870;51.384;10.316;2022-12-26T01:26:03;7.70;;;4.05;;
21418;SDS011;10870;51.384;10.316;2022-12-26T01:28:05;5.20;;;4.43;;
21418;SDS011;10870;51.384;10.316;2022-12-26T01:30:07;6.43;;;4.35;;
21418;SDS011;10870;51.384;10.316;2022-12-26T01:32:09;5.53;;;4.90;;
21418;SDS011;10870;51.384;10.316;2022-12-26T01:34:13;4.60;;;4.20;;
21418;SDS011;10870;51.384;10.316;2022-12-26T01:36:14;4.57;;;3.90;;
21418;SDS011;10870;51.384;10.316;2022-12-26T01:38:18;5.30;;;3.25;;
21418;SDS011;10870;51.384;10.316;2022-12-26T01:40:19;5.18;;;3.85;;
21418;SDS011;10870;51.384;10.316;2022-12-26T01:42:22;5.65;;;3.88;;
21418;SDS011;10870;51.384;10.316;2022-12-26T01:46:45;6.43;;;3.75;;
21418;SDS011;10870;51.384;10.316;2022-12-26T01:48:48;4.38;;;3.85;;
21418;SDS011;10870;51.384;10.316;2022-12-26T01:52:54;9.05;;;4.15;;
21418;SDS011;10870;51.384;10.316;2022-12-26T01:54:57;5.95;;;3.70;;
21418;SDS011;10870;51.384;10.316;2022-12-26T01:56:59;4.88;;;3.55;;
21418;SDS011;10870;51.384;10.316;2022-12-26T01:59:08;5.03;;;4.28;;
21418;SDS011;10870;51.384;10.316;2022-12-26T02:01:11;5.97;;;3.15;;
21418;SDS011;10870;51.384;10.316;2022-12-26T02:03:18;6.03;;;3.72;;
21418;SDS011;10870;51.384;10.316;2022-12-26T02:05:38;6.28;;;4.05;;
21418;SDS011;10870;51.384;10.316;2022-12-26T02:07:45;5.50;;;3.88;;
21418;SDS011;10870;51.384;10.316;2022-12-26T02:09:46;5.45;;;3.35;;
21418;SDS011;10870;51.384;10.316;2022-12-26T02:11:49;5.35;;;4.43;;
21418;SDS011;10870;51.384;10.316;2022-12-26T02:13:54;4.50;;;3.83;;
21418;SDS011;10870;51.384;10.316;2022-12-26T02:15:58;5.00;;;4.40;;
21418;SDS011;10870;51.384;10.316;2022-12-26T02:18:01;5.43;;;3.15;;
21418;SDS011;10870;51.384;10.316;2022-12-26T02:24:38;4.88;;;3.72;;
21418;SDS011;10870;51.384;10.316;2022-12-26T02:27:24;7.40;;;3.42;;
21418;SDS011;10870;51.384;10.316;2022-12-26T02:46:40;5.05;;;3.95;;
21418;SDS011;10870;51.384;10.316;2022-12-26T02:49:07;5.43;;;3.72;;
21418;SDS011;10870;51.384;10.316;2022-12-26T02:53:45;6.53;;;3.92;;
21418;SDS011;10870;51.384;10.316;2022-12-26T03:01:33;7.72;;;4.47;;
21418;SDS011;10870;51.384;10.316;2022-12-26T03:03:54;6.57;;;4.15;;
21418;SDS011;10870;51.384;10.316;2022-12-26T03:06:17;5.25;;;3.47;;
21418;SDS011;10870;51.384;10.316;2022-12-26T03:08:41;6.13;;;3.65;;
21418;SDS011;10870;51.384;10.316;2022-12-26T03:11:03;5.85;;;3.17;;
21418;SDS011;10870;51.384;10.316;2022-12-26T03:13:27;4.30;;;3.00;;
21418;SDS011;10870;51.384;10.316;2022-12-26T03:15:57;6.20;;;3.88;;
21418;SDS011;10870;51.384;10.316;2022-12-26T03:18:16;5.88;;;3.78;;
21418;SDS011;10870;51.384;10.316;2022-12-26T03:20:25;7.32;;;4.28;;
21418;SDS011;10870;51.384;10.316;2022-12-26T03:24:33;5.35;;;4.10;;
21418;SDS011;10870;51.384;10.316;2022-12-26T03:26:54;4.07;;;3.65;;
21418;SDS011;10870;51.384;10.316;2022-12-26T03:28:58;6.05;;;4.20;;
21418;SDS011;10870;51.384;10.316;2022-12-26T03:31:18;6.38;;;3.75;;
21418;SDS011;10870;51.384;10.316;2022-12-26T03:33:30;3.97;;;3.50;;
21418;SDS011;10870;51.384;10.316;2022-12-26T03:35:50;2.90;;;2.60;;
21418;SDS011;10870;51.384;10.316;2022-12-26T03:37:55;5.55;;;4.28;;
21418;SDS011;10870;51.384;10.316;2022-12-26T03:42:43;5.07;;;3.40;;
21418;SDS011;10870;51.384;10.316;2022-12-26T03:45:53;5.75;;;4.07;;
21418;SDS011;10870;51.384;10.316;2022-12-26T03:47:55;7.55;;;4.05;;
21418;SDS011;10870;51.384;10.316;2022-12-26T03:50:23;6.32;;;3.90;;
21418;SDS011;10870;51.384;10.316;2022-12-26T03:52:59;7.57;;;4.15;;
21418;SDS011;10870;51.384;10.316;2022-12-26T03:57:47;5.85;;;3.72;;
21418;SDS011;10870;51.384;10.316;2022-12-26T04:00:09;5.60;;;4.00;;
21418;SDS011;10870;51.384;10.316;2022-12-26T04:02:30;4.70;;;4.10;;
21418;SDS011;10870;51.384;10.316;2022-12-26T04:04:53;5.85;;;4.47;;
21418;SDS011;10870;51.384;10.316;2022-12-26T04:07:18;5.17;;;3.40;;
21418;SDS011;10870;51.384;10.316;2022-12-26T04:09:48;4.80;;;3.67;;
21418;SDS011;10870;51.384;10.316;2022-12-26T04:12:11;4.77;;;3.53;;
21418;SDS011;10870;51.384;10.316;2022-12-26T04:17:34;4.57;;;2.92;;
21418;SDS011;10870;51.384;10.316;2022-12-26T04:19:58;5.88;;;4.00;;
21418;SDS011;10870;51.384;10.316;2022-12-26T04:22:09;4.47;;;3.28;;
21418;SDS011;10870;51.384;10.316;2022-12-26T04:24:34;4.22;;;3.75;;
21418;SDS011;10870;51.384;10.316;2022-12-26T04:26:59;4.07;;;3.15;;
21418;SDS011;10870;51.384;10.316;2022-12-26T04:29:20;9.35;;;3.78;;
21418;SDS011;10870;51.384;10.316;2022-12-26T04:31:44;4.63;;;3.35;;
21418;SDS011;10870;51.384;10.316;2022-12-26T04:34:07;5.78;;;3.67;;
21418;SDS011;10870;51.384;10.316;2022-12-26T04:36:32;7.50;;;3.83;;
21418;SDS011;10870;51.384;10.316;2022-12-26T04:38:57;5.80;;;3.53;;
21418;SDS011;10870;51.384;10.316;2022-12-26T04:41:21;6.70;;;3.30;;
21418;SDS011;10870;51.384;10.316;2022-12-26T04:43:45;5.30;;;3.63;;
21418;SDS011;10870;51.384;10.316;2022-12-26T04:46:07;4.75;;;3.75;;
21418;SDS011;10870;51.384;10.316;2022-12-26T04:48:11;4.47;;;3.30;;
21418;SDS011;10870;51.384;10.316;2022-12-26T04:50:30;5.55;;;3.25;;
21418;SDS011;10870;51.384;10.316;2022-12-26T04:52:34;4.05;;;3.20;;
21418;SDS011;10870;51.384;10.316;2022-12-26T04:54:54;6.28;;;3.88;;
21418;SDS011;10870;51.384;10.316;2022-12-26T04:56:57;4.93;;;3.60;;
21418;SDS011;10870;51.384;10.316;2022-12-26T04:59:00;5.97;;;3.40;;
21418;SDS011;10870;51.384;10.316;2022-12-26T05:01:02;6.05;;;4.40;;
21418;SDS011;10870;51.384;10.316;2022-12-26T05:03:21;5.80;;;3.55;;
21418;SDS011;10870;51.384;10.316;2022-12-26T05:05:47;7.80;;;4.28;;
21418;SDS011;10870;51.384;10.316;2022-12-26T05:08:19;4.22;;;3.67;;
21418;SDS011;10870;51.384;10.316;2022-12-26T05:10:41;11.98;;;4.22;;
21418;SDS011;10870;51.384;10.316;2022-12-26T05:12:44;5.30;;;3.50;;
21418;SDS011;10870;51.384;10.316;2022-12-26T05:14:46;5.68;;;3.60;;
21418;SDS011;10870;51.384;10.316;2022-12-26T05:16:50;6.28;;;3.42;;
21418;SDS011;10870;51.384;10.316;2022-12-26T05:19:13;5.90;;;3.40;;
21418;SDS011;10870;51.384;10.316;2022-12-26T05:21:34;4.03;;;2.95;;
21418;SDS011;10870;51.384;10.316;2022-12-26T05:23:54;9.10;;;3.72;;
21418;SDS011;10870;51.384;10.316;2022-12-26T05:26:17;4.75;;;2.92;;
21418;SDS011;10870;51.384;10.316;2022-12-26T05:28:42;6.53;;;3.67;;
21418;SDS011;10870;51.384;10.316;2022-12-26T05:30:47;6.60;;;3.90;;
21418;SDS011;10870;51.384;10.316;2022-12-26T05:32:50;4.18;;;3.47;;
21418;SDS011;10870;51.384;10.316;2022-12-26T05:35:10;4.53;;;3.15;;
21418;SDS011;10870;51.384;10.316;2022-12-26T05:37:12;6.45;;;3.67;;
21418;SDS011;10870;51.384;10.316;2022-12-26T05:39:16;7.65;;;4.13;;
21418;SDS011;10870;51.384;10.316;2022-12-26T05:41:17;8.15;;;3.50;;
21418;SDS011;10870;51.384;10.316;2022-12-26T05:43:18;4.47;;;3.80;;
21418;SDS011;10870;51.384;10.316;2022-12-26T05:45:20;5.90;;;3.92;;
21418;SDS011;10870;51.384;10.316;2022-12-26T05:47:21;5.93;;;3.67;;
21418;SDS011;10870;51.384;10.316;2022-12-26T05:49:25;7.22;;;4.05;;
21418;SDS011;10870;51.384;10.316;2022-12-26T05:51:26;5.70;;;3.38;;
21418;SDS011;10870;51.384;10.316;2022-12-26T05:53:28;7.35;;;3.78;;
21418;SDS011;10870;51.384;10.316;2022-12-26T05:55:29;4.63;;;3.15;;
21418;SDS011;10870;51.384;10.316;2022-12-26T05:57:31;7.18;;;3.50;;
21418;SDS011;10870;51.384;10.316;2022-12-26T05:59:34;5.28;;;3.50;;
21418;SDS011;10870;51.384;10.316;2022-12-26T06:01:37;5.78;;;3.80;;
21418;SDS011;10870;51.384;10.316;2022-12-26T06:03:41;7.20;;;4.50;;
21418;SDS011;10870;51.384;10.316;2022-12-26T06:05:46;8.00;;;4.45;;
21418;SDS011;10870;51.384;10.316;2022-12-26T06:07:50;6.18;;;4.05;;
21418;SDS011;10870;51.384;10.316;2022-12-26T06:09:51;6.28;;;3.85;;
21418;SDS011;10870;51.384;10.316;2022-12-26T06:11:55;7.50;;;4.03;;
21418;SDS011;10870;51.384;10.316;2022-12-26T06:13:56;6.65;;;3.75;;
21418;SDS011;10870;51.384;10.316;2022-12-26T06:16:04;7.03;;;4.03;;
21418;SDS011;10870;51.384;10.316;2022-12-26T06:18:08;5.53;;;3.63;;
21418;SDS011;10870;51.384;10.316;2022-12-26T06:20:13;6.38;;;3.75;;
21418;SDS011;10870;51.384;10.316;2022-12-26T06:22:16;5.93;;;3.42;;
21418;SDS011;10870;51.384;10.316;2022-12-26T06:24:17;4.13;;;2.78;;
21418;SDS011;10870;51.384;10.316;2022-12-26T06:26:19;5.53;;;3.10;;
21418;SDS011;10870;51.384;10.316;2022-12-26T06:28:23;5.50;;;3.40;;
21418;SDS011;10870;51.384;10.316;2022-12-26T06:30:24;4.28;;;2.83;;
21418;SDS011;10870;51.384;10.316;2022-12-26T06:32:25;4.72;;;3.05;;
21418;SDS011;10870;51.384;10.316;2022-12-26T06:34:27;5.30;;;2.72;;
21418;SDS011;10870;51.384;10.316;2022-12-26T06:36:28;5.72;;;3.20;;
21418;SDS011;10870;51.384;10.316;2022-12-26T06:38:30;9.68;;;4.00;;
21418;SDS011;10870;51.384;10.316;2022-12-26T06:40:31;6.10;;;4.03;;
21418;SDS011;10870;51.384;10.316;2022-12-26T06:42:35;7.80;;;3.33;;
21418;SDS011;10870;51.384;10.316;2022-12-26T06:44:36;4.93;;;3.38;;
21418;SDS011;10870;51.384;10.316;2022-12-26T06:46:40;4.40;;;3.55;;
21418;SDS011;10870;51.384;10.316;2022-12-26T06:48:42;8.57;;;3.72;;
21418;SDS011;10870;51.384;10.316;2022-12-26T06:50:49;8.23;;;4.97;;
21418;SDS011;10870;51.384;10.316;2022-12-26T06:52:51;4.57;;;2.95;;
21418;SDS011;10870;51.384;10.316;2022-12-26T06:54:54;7.75;;;3.75;;
21418;SDS011;10870;51.384;10.316;2022-12-26T06:57:00;3.58;;;2.72;;
21418;SDS011;10870;51.384;10.316;2022-12-26T06:59:02;5.03;;;2.95;;
21418;SDS011;10870;51.384;10.316;2022-12-26T07:01:06;7.95;;;2.92;;
21418;SDS011;10870;51.384;10.316;2022-12-26T07:03:11;5.63;;;2.63;;
21418;SDS011;10870;51.384;10.316;2022-12-26T07:05:14;5.40;;;3.17;;
21418;SDS011;10870;51.384;10.316;2022-12-26T07:07:16;4.90;;;3.15;;
21418;SDS011;10870;51.384;10.316;2022-12-26T07:09:17;4.55;;;2.88;;
21418;SDS011;10870;51.384;10.316;2022-12-26T07:11:20;5.05;;;2.55;;
21418;SDS011;10870;51.384;10.316;2022-12-26T07:13:22;4.15;;;2.35;;
21418;SDS011;10870;51.384;10.316;2022-12-26T07:15:23;5.60;;;2.88;;
21418;SDS011;10870;51.384;10.316;2022-12-26T07:17:27;4.10;;;3.13;;
21418;SDS011;10870;51.384;10.316;2022-12-26T07:19:28;3.78;;;2.47;;
21418;SDS011;10870;51.384;10.316;2022-12-26T07:21:29;7.57;;;2.80;;
21418;SDS011;10870;51.384;10.316;2022-12-26T07:23:31;5.13;;;2.45;;
21418;SDS011;10870;51.384;10.316;2022-12-26T07:25:32;4.43;;;2.47;;
21418;SDS011;10870;51.384;10.316;2022-12-26T07:27:33;3.72;;;2.45;;
21418;SDS011;10870;51.384;10.316;2022-12-26T07:29:35;3.60;;;2.50;;
21418;SDS011;10870;51.384;10.316;2022-12-26T07:31:36;5.28;;;2.63;;
21418;SDS011;10870;51.384;10.316;2022-12-26T07:33:45;5.05;;;2.45;;
21418;SDS011;10870;51.384;10.316;2022-12-26T07:35:48;5.57;;;2.15;;
21418;SDS011;10870;51.384;10.316;2022-12-26T07:37:49;5.65;;;2.28;;
21418;SDS011;10870;51.384;10.316;2022-12-26T07:39:54;3.20;;;2.08;;
21418;SDS011;10870;51.384;10.316;2022-12-26T07:41:55;5.47;;;2.45;;
21418;SDS011;10870;51.384;10.316;2022-12-26T07:43:57;4.45;;;2.17;;
21418;SDS011;10870;51.384;10.316;2022-12-26T07:46:00;4.30;;;2.63;;
21418;SDS011;10870;51.384;10.316;2022-12-26T07:48:02;3.28;;;2.20;;
21418;SDS011;10870;51.384;10.316;2022-12-26T07:50:03;3.78;;;3.10;;
21418;SDS011;10870;51.384;10.316;2022-12-26T07:52:04;2.63;;;2.28;;
21418;SDS011;10870;51.384;10.316;2022-12-26T07:54:08;2.47;;;2.25;;
21418;SDS011;10870;51.384;10.316;2022-12-26T07:56:15;4.10;;;2.35;;
21418;SDS011;10870;51.384;10.316;2022-12-26T07:58:19;4.30;;;2.10;;
21418;SDS011;10870;51.384;10.316;2022-12-26T08:00:20;5.18;;;2.60;;
21418;SDS011;10870;51.384;10.316;2022-12-26T08:02:22;2.95;;;2.40;;
21418;SDS011;10870;51.384;10.316;2022-12-26T08:04:23;3.58;;;3.10;;
21418;SDS011;10870;51.384;10.316;2022-12-26T08:06:25;6.07;;;2.92;;
21418;SDS011;10870;51.384;10.316;2022-12-26T08:08:26;3.60;;;2.97;;
21418;SDS011;10870;51.384;10.316;2022-12-26T08:10:27;4.68;;;2.70;;
21418;SDS011;10870;51.384;10.316;2022-12-26T08:12:30;4.43;;;2.85;;
21418;SDS011;10870;51.384;10.316;2022-12-26T08:14:36;7.03;;;3.00;;
21418;SDS011;10870;51.384;10.316;2022-12-26T08:16:40;5.30;;;2.95;;
21418;SDS011;10870;51.384;10.316;2022-12-26T08:18:41;3.65;;;3.08;;
21418;SDS011;10870;51.384;10.316;2022-12-26T08:20:43;6.03;;;2.90;;
21418;SDS011;10870;51.384;10.316;2022-12-26T08:22:44;3.92;;;2.60;;
21418;SDS011;10870;51.384;10.316;2022-12-26T08:24:51;5.78;;;3.03;;
21418;SDS011;10870;51.384;10.316;2022-12-26T08:26:52;6.15;;;2.63;;
21418;SDS011;10870;51.384;10.316;2022-12-26T08:28:54;4.75;;;2.10;;
21418;SDS011;10870;51.384;10.316;2022-12-26T08:30:58;8.43;;;4.40;;
21418;SDS011;10870;51.384;10.316;2022-12-26T08:33:07;3.08;;;1.88;;
21418;SDS011;10870;51.384;10.316;2022-12-26T08:35:32;2.03;;;1.27;;
21418;SDS011;10870;51.384;10.316;2022-12-26T08:37:38;4.15;;;1.15;;
21418;SDS011;10870;51.384;10.316;2022-12-26T08:39:40;1.05;;;0.95;;
21418;SDS011;10870;51.384;10.316;2022-12-26T08:41:41;2.58;;;0.88;;
21418;SDS011;10870;51.384;10.316;2022-12-26T08:43:51;3.83;;;0.90;;
21418;SDS011;10870;51.384;10.316;2022-12-26T08:45:59;3.60;;;1.05;;
21418;SDS011;10870;51.384;10.316;2022-12-26T08:48:02;1.95;;;0.73;;
21418;SDS011;10870;51.384;10.316;2022-12-26T08:50:04;0.70;;;0.60;;
21418;SDS011;10870;51.384;10.316;2022-12-26T08:52:06;1.75;;;0.65;;
21418;SDS011;10870;51.384;10.316;2022-12-26T08:54:09;0.80;;;0.75;;
21418;SDS011;10870;51.384;10.316;2022-12-26T08:56:14;0.68;;;0.68;;
21418;SDS011;10870;51.384;10.316;2022-12-26T08:58:16;3.17;;;0.90;;
21418;SDS011;10870;51.384;10.316;2022-12-26T09:00:23;0.90;;;0.80;;
21418;SDS011;10870;51.384;10.316;2022-12-26T09:02:28;0.40;;;0.40;;
21418;SDS011;10870;51.384;10.316;2022-12-26T09:04:29;2.22;;;0.98;;
21418;SDS011;10870;51.384;10.316;2022-12-26T09:06:31;0.93;;;0.80;;
21418;SDS011;10870;51.384;10.316;2022-12-26T09:08:33;2.35;;;0.70;;
21418;SDS011;10870;51.384;10.316;2022-12-26T09:10:37;1.00;;;0.70;;
21418;SDS011;10870;51.384;10.316;2022-12-26T09:12:40;0.73;;;0.73;;
21418;SDS011;10870;51.384;10.316;2022-12-26T09:14:42;1.30;;;0.80;;
21418;SDS011;10870;51.384;10.316;2022-12-26T09:16:43;5.40;;;0.75;;
21418;SDS011;10870;51.384;10.316;2022-12-26T09:18:45;1.65;;;0.70;;
21418;SDS011;10870;51.384;10.316;2022-12-26T09:20:47;0.82;;;0.80;;
21418;SDS011;10870;51.384;10.316;2022-12-26T09:22:50;0.60;;;0.60;;
21418;SDS011;10870;51.384;10.316;2022-12-26T09:24:52;2.05;;;0.82;;
21418;SDS011;10870;51.384;10.316;2022-12-26T09:26:55;1.98;;;1.70;;
21418;SDS011;10870;51.384;10.316;2022-12-26T09:28:57;2.38;;;1.20;;
21418;SDS011;10870;51.384;10.316;2022-12-26T09:31:01;1.40;;;1.23;;
21418;SDS011;10870;51.384;10.316;2022-12-26T09:33:09;3.40;;;1.35;;
21418;SDS011;10870;51.384;10.316;2022-12-26T09:35:10;1.98;;;1.05;;
21418;SDS011;10870;51.384;10.316;2022-12-26T09:37:11;2.22;;;2.00;;
21418;SDS011;10870;51.384;10.316;2022-12-26T09:39:15;2.20;;;1.45;;
21418;SDS011;10870;51.384;10.316;2022-12-26T09:52:09;2.30;;;1.02;;
21418;SDS011;10870;51.384;10.316;2022-12-26T09:54:17;1.17;;;0.95;;
21418;SDS011;10870;51.384;10.316;2022-12-26T09:56:24;1.67;;;1.30;;
21418;SDS011;10870;51.384;10.316;2022-12-26T09:58:27;1.30;;;0.88;;
21418;SDS011;10870;51.384;10.316;2022-12-26T10:00:42;5.88;;;4.53;;
21418;SDS011;10870;51.384;10.316;2022-12-26T10:02:45;7.75;;;6.85;;
21418;SDS011;10870;51.384;10.316;2022-12-26T10:04:49;3.17;;;2.33;;
21418;SDS011;10870;51.384;10.316;2022-12-26T10:07:01;2.10;;;1.92;;
21418;SDS011;10870;51.384;10.316;2022-12-26T10:13:37;1.88;;;1.05;;
21418;SDS011;10870;51.384;10.316;2022-12-26T10:15:44;1.20;;;1.10;;
21418;SDS011;10870;51.384;10.316;2022-12-26T10:18:23;0.90;;;0.90;;
21418;SDS011;10870;51.384;10.316;2022-12-26T10:22:32;2.53;;;1.75;;
21418;SDS011;10870;51.384;10.316;2022-12-26T10:24:35;1.90;;;1.10;;
21418;SDS011;10870;51.384;10.316;2022-12-26T10:26:42;1.58;;;0.90;;
21418;SDS011;10870;51.384;10.316;2022-12-26T10:30:47;1.60;;;1.20;;
21418;SDS011;10870;51.384;10.316;2022-12-26T10:32:54;1.40;;;1.23;;
21418;SDS011;10870;51.384;10.316;2022-12-26T10:35:00;1.38;;;1.10;;
21418;SDS011;10870;51.384;10.316;2022-12-26T10:39:12;2.22;;;1.15;;
21418;SDS011;10870;51.384;10.316;2022-12-26T10:41:19;1.50;;;1.40;;
21418;SDS011;10870;51.384;10.316;2022-12-26T10:45:35;1.17;;;0.90;;
21418;SDS011;10870;51.384;10.316;2022-12-26T10:47:40;11.00;;;1.38;;
21418;SDS011;10870;51.384;10.316;2022-12-26T10:49:46;8.07;;;4.90;;
21418;SDS011;10870;51.384;10.316;2022-12-26T10:51:48;2.03;;;1.77;;
21418;SDS011;10870;51.384;10.316;2022-12-26T10:53:50;2.42;;;1.40;;
21418;SDS011;10870;51.384;10.316;2022-12-26T10:55:52;2.05;;;1.15;;
21418;SDS011;10870;51.384;10.316;2022-12-26T10:57:53;1.52;;;1.35;;
21418;SDS011;10870;51.384;10.316;2022-12-26T10:59:55;2.75;;;2.05;;
21418;SDS011;10870;51.384;10.316;2022-12-26T11:01:56;2.38;;;2.08;;
21418;SDS011;10870;51.384;10.316;2022-12-26T11:04:15;2.33;;;1.35;;
21418;SDS011;10870;51.384;10.316;2022-12-26T11:06:16;1.92;;;1.35;;
21418;SDS011;10870;51.384;10.316;2022-12-26T11:08:37;0.90;;;0.90;;
21418;SDS011;10870;51.384;10.316;2022-12-26T11:10:39;2.40;;;1.10;;
21418;SDS011;10870;51.384;10.316;2022-12-26T11:14:42;1.38;;;1.25;;
21418;SDS011;10870;51.384;10.316;2022-12-26T11:16:46;1.00;;;1.00;;
21418;SDS011;10870;51.384;10.316;2022-12-26T11:18:51;1.17;;;1.10;;
21418;SDS011;10870;51.384;10.316;2022-12-26T11:20:52;1.85;;;1.65;;
21418;SDS011;10870;51.384;10.316;2022-12-26T11:23:11;2.85;;;2.65;;
21418;SDS011;10870;51.384;10.316;2022-12-26T11:25:17;1.70;;;1.60;;
21418;SDS011;10870;51.384;10.316;2022-12-26T11:27:22;3.97;;;2.35;;
21418;SDS011;10870;51.384;10.316;2022-12-26T11:29:24;1.85;;;0.90;;
21418;SDS011;10870;51.384;10.316;2022-12-26T11:31:25;1.92;;;1.83;;
21418;SDS011;10870;51.384;10.316;2022-12-26T11:33:45;3.78;;;3.40;;
21418;SDS011;10870;51.384;10.316;2022-12-26T11:35:51;1.80;;;1.70;;
21418;SDS011;10870;51.384;10.316;2022-12-26T11:37:54;2.90;;;1.05;;
21418;SDS011;10870;51.384;10.316;2022-12-26T11:39:56;1.45;;;1.33;;
21418;SDS011;10870;51.384;10.316;2022-12-26T11:41:58;1.10;;;0.80;;
21418;SDS011;10870;51.384;10.316;2022-12-26T11:44:17;0.88;;;0.85;;
21418;SDS011;10870;51.384;10.316;2022-12-26T11:46:29;0.98;;;0.90;;
21418;SDS011;10870;51.384;10.316;2022-12-26T11:48:31;1.45;;;1.35;;
21418;SDS011;10870;51.384;10.316;2022-12-26T11:50:36;1.23;;;1.13;;
21418;SDS011;10870;51.384;10.316;2022-12-26T11:53:02;2.40;;;1.80;;
21418;SDS011;10870;51.384;10.316;2022-12-26T11:55:40;2.53;;;1.48;;
21418;SDS011;10870;51.384;10.316;2022-12-26T11:57:38;2.03;;;1.73;;
21418;SDS011;10870;51.384;10.316;2022-12-26T11:59:39;0.73;;;0.73;;
21418;SDS011;10870;51.384;10.316;2022-12-26T12:01:43;1.90;;;1.70;;
21418;SDS011;10870;51.384;10.316;2022-12-26T12:03:50;1.77;;;1.45;;
21418;SDS011;10870;51.384;10.316;2022-12-26T12:21:28;1.48;;;1.38;;
21418;SDS011;10870;51.384;10.316;2022-12-26T12:26:23;1.25;;;0.65;;
21418;SDS011;10870;51.384;10.316;2022-12-26T12:28:42;0.70;;;0.70;;
21418;SDS011;10870;51.384;10.316;2022-12-26T12:31:06;0.93;;;0.70;;
21418;SDS011;10870;51.384;10.316;2022-12-26T12:33:27;1.73;;;1.05;;
21418;SDS011;10870;51.384;10.316;2022-12-26T12:40:36;2.30;;;1.20;;
21418;SDS011;10870;51.384;10.316;2022-12-26T12:42:56;2.38;;;1.20;;
21418;SDS011;10870;51.384;10.316;2022-12-26T12:47:20;1.67;;;1.58;;
21418;SDS011;10870;51.384;10.316;2022-12-26T12:51:52;1.80;;;1.20;;
21418;SDS011;10870;51.384;10.316;2022-12-26T12:58:30;1.08;;;0.80;;
21418;SDS011;10870;51.384;10.316;2022-12-26T13:00:43;2.05;;;0.80;;
21418;SDS011;10870;51.384;10.316;2022-12-26T13:07:33;4.05;;;1.90;;
21418;SDS011;10870;51.384;10.316;2022-12-26T13:11:59;5.22;;;1.13;;
21418;SDS011;10870;51.384;10.316;2022-12-26T13:14:21;4.25;;;3.63;;
21418;SDS011;10870;51.384;10.316;2022-12-26T13:16:28;9.25;;;4.05;;
21418;SDS011;10870;51.384;10.316;2022-12-26T13:18:32;2.03;;;1.73;;
21418;SDS011;10870;51.384;10.316;2022-12-26T13:20:39;1.88;;;1.60;;
21418;SDS011;10870;51.384;10.316;2022-12-26T13:22:44;1.55;;;1.30;;
21418;SDS011;10870;51.384;10.316;2022-12-26T13:27:08;4.03;;;1.10;;
21418;SDS011;10870;51.384;10.316;2022-12-26T13:29:13;4.10;;;1.83;;
21418;SDS011;10870;51.384;10.316;2022-12-26T13:31:16;2.63;;;1.52;;
21418;SDS011;10870;51.384;10.316;2022-12-26T13:33:17;1.77;;;1.33;;
21418;SDS011;10870;51.384;10.316;2022-12-26T13:37:55;3.42;;;1.77;;
21418;SDS011;10870;51.384;10.316;2022-12-26T13:39:58;1.20;;;1.02;;
21418;SDS011;10870;51.384;10.316;2022-12-26T13:44:25;3.10;;;1.73;;
21418;SDS011;10870;51.384;10.316;2022-12-26T13:50:56;2.70;;;1.20;;
21418;SDS011;10870;51.384;10.316;2022-12-26T13:53:01;2.47;;;1.48;;
21418;SDS011;10870;51.384;10.316;2022-12-26T13:57:10;14.60;;;8.07;;
21418;SDS011;10870;51.384;10.316;2022-12-26T13:59:21;3.78;;;1.90;;
21418;SDS011;10870;51.384;10.316;2022-12-26T14:01:34;2.92;;;1.05;;
21418;SDS011;10870;51.384;10.316;2022-12-26T14:03:53;5.57;;;2.90;;
21418;SDS011;10870;51.384;10.316;2022-12-26T14:17:57;3.17;;;1.90;;
21418;SDS011;10870;51.384;10.316;2022-12-26T14:22:12;1.83;;;1.02;;
21418;SDS011;10870;51.384;10.316;2022-12-26T14:28:49;1.38;;;0.90;;
21418;SDS011;10870;51.384;10.316;2022-12-26T14:30:58;2.30;;;1.60;;
21418;SDS011;10870;51.384;10.316;2022-12-26T14:33:26;3.22;;;1.67;;
21418;SDS011;10870;51.384;10.316;2022-12-26T14:40:01;2.45;;;1.40;;
21418;SDS011;10870;51.384;10.316;2022-12-26T14:48:37;2.40;;;1.35;;
21418;SDS011;10870;51.384;10.316;2022-12-26T14:52:45;1.60;;;1.10;;
21418;SDS011;10870;51.384;10.316;2022-12-26T14:54:49;4.22;;;1.55;;
21418;SDS011;10870;51.384;10.316;2022-12-26T14:56:54;3.28;;;1.52;;
21418;SDS011;10870;51.384;10.316;2022-12-26T15:01:41;3.97;;;2.10;;
21418;SDS011;10870;51.384;10.316;2022-12-26T15:06:43;4.65;;;2.65;;
21418;SDS011;10870;51.384;10.316;2022-12-26T15:15:03;2.45;;;1.65;;
21418;SDS011;10870;51.384;10.316;2022-12-26T15:24:20;10.27;;;6.78;;
21418;SDS011;10870;51.384;10.316;2022-12-26T15:31:05;11.98;;;6.43;;
21418;SDS011;10870;51.384;10.316;2022-12-26T15:33:29;7.30;;;2.70;;